createdAt,value
2024-01-19T00:00:03.428Z,97391.47
2024-01-19T00:04:07.896Z,97398.25
2024-01-19T00:08:12.634Z,97407.78
2024-01-19T00:12:15.559Z,97425.78
2024-01-19T00:16:20.384Z,97426.69
2024-01-19T00:20:24.508Z,97432.03
2024-01-19T00:24:27.518Z,97432.16
2024-01-19T00:28:30.421Z,97445.88
2024-01-19T00:32:34.889Z,97452.72
2024-01-19T00:36:37.898Z,97473.28
2024-01-19T00:40:40.843Z,97486.13
2024-01-19T00:44:43.862Z,97496.56
2024-01-19T00:48:49.298Z,97499.97
2024-01-19T00:52:52.268Z,97501.81
2024-01-19T00:56:55.282Z,97505.28
2024-01-19T01:00:58.534Z,97521.69
2024-01-19T01:05:02.890Z,97520.22
2024-01-19T01:09:05.854Z,97530.72
2024-01-19T01:13:08.811Z,97539.66
2024-01-19T01:17:11.779Z,97539.06
2024-01-19T01:21:16.156Z,97542.78
2024-01-19T01:25:19.407Z,97548.13
2024-01-19T01:29:22.343Z,97547.31
2024-01-19T01:33:25.477Z,97561.19
2024-01-19T01:37:31.092Z,97562.13
2024-01-19T01:41:34.079Z,97573.38
2024-01-19T01:45:37.168Z,97590.63
2024-01-19T01:49:40.311Z,97589.03
2024-01-19T01:53:45.067Z,97599.50
2024-01-19T01:57:48.984Z,97604.03
2024-01-19T02:01:52.087Z,97601.56
2024-01-19T02:05:55.186Z,97613.66
2024-01-19T02:10:00.206Z,97618.91
2024-01-19T02:14:05.598Z,97619.84
2024-01-19T02:18:08.772Z,97627.63
2024-01-19T02:22:11.924Z,97638.00
2024-01-19T02:26:16.514Z,97648.34
2024-01-19T02:30:19.635Z,97648.41
2024-01-19T02:34:23.776Z,97648.41
2024-01-19T02:38:26.747Z,97651.84
2024-01-19T02:42:32.099Z,97657.06
2024-01-19T02:46:39.453Z,97667.38
2024-01-19T02:50:42.498Z,97659.69
2024-01-19T02:54:45.521Z,97669.16
2024-01-19T02:58:49.834Z,97673.56
2024-01-19T03:02:53.015Z,97672.78
2024-01-19T03:06:56.346Z,97675.31
2024-01-19T03:10:59.300Z,97658.16
2024-01-19T03:15:03.688Z,97659.97
2024-01-19T03:19:06.677Z,97659.25
2024-01-19T03:23:10.255Z,97664.41
2024-01-19T03:27:13.753Z,97669.66
2024-01-19T03:31:18.237Z,97674.03
2024-01-19T03:35:22.324Z,97674.25
2024-01-19T03:39:25.784Z,97677.88
2024-01-19T03:43:28.805Z,97688.22
2024-01-19T03:47:33.414Z,97694.22
2024-01-19T03:51:36.442Z,97696.91
2024-01-19T03:55:39.404Z,97696.13
2024-01-19T03:59:43.124Z,97698.69
2024-01-19T04:03:47.701Z,97707.19
2024-01-19T04:07:50.782Z,97703.03
2024-01-19T04:11:53.823Z,97710.03
2024-01-19T04:15:56.935Z,97712.69
2024-01-19T04:20:01.198Z,97716.34
2024-01-19T04:24:05.295Z,97717.25
2024-01-19T04:28:08.983Z,97723.19
2024-01-19T04:32:12.042Z,97720.56
2024-01-19T04:36:18.869Z,97731.69
2024-01-19T04:40:21.822Z,97737.69
2024-01-19T04:44:24.795Z,97747.97
2024-01-19T04:48:27.881Z,97755.63
2024-01-19T04:52:32.210Z,97771.88
2024-01-19T04:56:35.433Z,97774.63
2024-01-19T05:00:38.442Z,97785.91
2024-01-19T05:04:43.036Z,97793.66
2024-01-19T05:08:47.560Z,97793.63
2024-01-19T05:12:51.566Z,97804.78
2024-01-19T05:16:54.564Z,97812.50
2024-01-19T05:20:57.883Z,97827.97
2024-01-19T05:25:02.832Z,97830.59
2024-01-19T05:29:06.461Z,97846.06
2024-01-19T05:33:09.508Z,97855.44
2024-01-19T05:37:12.557Z,97856.38
2024-01-19T05:41:22.628Z,97862.38
2024-01-19T05:45:25.680Z,97869.97
2024-01-19T05:49:28.554Z,97868.25
2024-01-19T05:53:31.512Z,97875.19
2024-01-19T05:57:35.798Z,97875.25
2024-01-19T06:01:44.606Z,97878.78
2024-01-19T06:05:47.784Z,97883.91
2024-01-19T06:09:50.834Z,97883.13
2024-01-19T06:13:55.213Z,97887.44
2024-01-19T06:17:58.172Z,97906.31
2024-01-19T06:22:01.127Z,97911.47
2024-01-19T06:26:04.094Z,97911.56
2024-01-19T06:30:09.755Z,97913.31
2024-01-19T06:34:12.901Z,97916.72
2024-01-19T06:38:15.832Z,97927.09
2024-01-19T06:42:18.798Z,97932.28
2024-01-19T06:46:23.215Z,97942.75
2024-01-19T06:50:26.237Z,97947.16
2024-01-19T06:54:29.178Z,97966.13
2024-01-19T06:58:32.080Z,97970.47
2024-01-19T07:02:36.343Z,97969.66
2024-01-19T07:06:39.533Z,97986.78
2024-01-19T07:10:42.803Z,97993.69
2024-01-19T07:14:45.816Z,98004.00
2024-01-19T07:18:50.283Z,98007.50
2024-01-19T07:22:54.292Z,98008.44
2024-01-19T07:26:57.306Z,98005.03
2024-01-19T07:31:00.336Z,98031.53
2024-01-19T07:35:05.120Z,98031.41
2024-01-19T07:39:08.716Z,98039.88
2024-01-19T07:43:11.697Z,98054.38
2024-01-19T07:47:14.616Z,98055.09
2024-01-19T07:51:19.863Z,98068.66
2024-01-19T07:55:22.785Z,98072.81
2024-01-19T07:59:25.675Z,98089.66
2024-01-19T08:03:28.683Z,98099.56
2024-01-19T08:07:33.031Z,98108.03
2024-01-19T08:15:39.047Z,98110.66
2024-01-19T08:19:42.005Z,98119.59
2024-01-19T08:23:46.394Z,98116.34
2024-01-19T08:27:49.470Z,98125.03
2024-01-19T08:31:56.171Z,98115.63
2024-01-19T08:35:59.492Z,98124.22
2024-01-19T08:40:03.847Z,98123.41
2024-01-19T08:44:07.338Z,98126.66
2024-01-19T08:48:10.308Z,98132.34
2024-01-19T08:52:13.797Z,98137.16
2024-01-19T08:56:22.646Z,98144.63
2024-01-19T09:00:25.698Z,98159.72
2024-01-19T09:04:29.218Z,98179.09
2024-01-19T09:08:32.213Z,98188.63
2024-01-19T09:12:36.650Z,98198.91
2024-01-19T09:16:39.561Z,98203.19
2024-01-19T09:20:42.680Z,98217.31
2024-01-19T09:24:47.397Z,98224.47
2024-01-19T09:28:52.293Z,98244.47
2024-01-19T09:32:55.270Z,98238.84
2024-01-19T09:36:58.351Z,98242.69
2024-01-19T09:41:08.244Z,98239.19
2024-01-19T09:45:19.045Z,98243.09
2024-01-19T09:49:30.932Z,98257.00
2024-01-19T09:53:40.751Z,98256.75
2024-01-19T09:57:47.534Z,98256.22
2024-01-19T10:01:54.661Z,98256.06
2024-01-19T10:05:57.763Z,98272.19
2024-01-19T10:10:00.964Z,98260.81
2024-01-19T10:14:03.937Z,98262.31
2024-01-19T10:18:09.293Z,98266.69
2024-01-19T10:22:29.311Z,98264.47
2024-01-19T10:26:32.326Z,98271.53
2024-01-19T10:30:35.328Z,98270.41
2024-01-19T10:34:39.672Z,98267.88
2024-01-19T10:38:42.681Z,98267.31
2024-01-19T10:42:47.127Z,98268.28
2024-01-19T10:46:51.466Z,98275.59
2024-01-19T10:51:03.698Z,98276.78
2024-01-19T10:55:06.860Z,98277.03
2024-01-19T10:59:13.880Z,98282.69
2024-01-19T11:03:18.769Z,98287.53
2024-01-19T11:07:23.268Z,98287.59
2024-01-19T11:11:32.776Z,98281.59
2024-01-19T11:15:37.915Z,98279.34
2024-01-19T11:19:41.010Z,98279.53
2024-01-19T11:23:46.306Z,98282.09
2024-01-19T11:27:59.316Z,98283.09
2024-01-19T11:32:03.415Z,98283.28
2024-01-19T11:36:07.124Z,98280.81
2024-01-19T11:40:11.886Z,98279.28
2024-01-19T11:44:44.202Z,98273.28
2024-01-19T11:48:49.245Z,98274.09
2024-01-19T11:52:57.087Z,98267.16
2024-01-19T11:57:19.404Z,98267.00
2024-01-19T12:01:22.964Z,98265.16
2024-01-19T12:05:27.771Z,98268.50
2024-01-19T12:09:30.769Z,98274.66
2024-01-19T12:13:36.499Z,98280.66
2024-01-19T12:17:41.978Z,98272.88
2024-01-19T12:21:45.263Z,98279.91
2024-01-19T12:25:48.263Z,98280.47
2024-01-19T12:29:52.737Z,98275.97
2024-01-19T12:33:55.727Z,98277.81
2024-01-19T12:37:58.667Z,98267.63
2024-01-19T12:42:03.808Z,98268.13
2024-01-19T12:46:10.152Z,98257.16
2024-01-19T12:50:22.656Z,98256.59
2024-01-19T12:54:43.175Z,98252.13
2024-01-19T12:58:46.185Z,98252.22
2024-01-19T13:02:54.423Z,98255.09
2024-01-19T13:06:57.382Z,98256.72
2024-01-19T13:11:08.119Z,98250.28
2024-01-19T13:15:12.434Z,98249.50
2024-01-19T13:19:17.823Z,98247.78
2024-01-19T13:23:21.954Z,98249.16
2024-01-19T13:27:24.878Z,98260.56
2024-01-19T13:31:27.911Z,98265.06
2024-01-19T13:35:33.267Z,98261.06
2024-01-19T13:39:36.409Z,98264.16
2024-01-19T13:43:42.587Z,98271.63
2024-01-19T13:47:45.455Z,98267.06
2024-01-19T13:51:49.867Z,98276.09
2024-01-19T13:55:52.853Z,98279.03
2024-01-19T13:59:55.809Z,98280.16
2024-01-19T14:03:58.870Z,98285.50
2024-01-19T14:08:04.163Z,98282.88
2024-01-19T14:12:08.894Z,98297.22
2024-01-19T14:16:11.905Z,98289.41
2024-01-19T14:20:14.966Z,98285.84
2024-01-19T14:24:21.534Z,98284.13
2024-01-19T14:28:24.448Z,98297.84
2024-01-19T14:32:27.919Z,98293.97
2024-01-19T14:36:30.983Z,98307.50
2024-01-19T14:40:35.407Z,98312.81
2024-01-19T14:44:38.830Z,98311.78
2024-01-19T14:49:08.095Z,98324.03
2024-01-19T14:53:14.514Z,98322.63
2024-01-19T14:57:20.823Z,98324.91
2024-01-19T15:01:24.258Z,98328.53
2024-01-19T15:05:27.174Z,98331.59
2024-01-19T15:09:31.271Z,98329.31
2024-01-19T15:13:46.971Z,98336.03
2024-01-19T15:17:50.277Z,98338.34
2024-01-19T15:21:56.473Z,98335.34
2024-01-19T15:25:59.491Z,98333.97
2024-01-19T15:30:04.409Z,98339.25
2024-01-19T15:34:07.590Z,98343.00
2024-01-19T15:38:10.698Z,98346.72
2024-01-19T15:42:14.652Z,98358.13
2024-01-19T15:46:23.461Z,98351.38
2024-01-19T15:50:26.522Z,98362.59
2024-01-19T15:54:29.577Z,98352.41
2024-01-19T15:58:34.326Z,98356.03
2024-01-19T16:02:38.807Z,98364.88
2024-01-19T16:06:41.849Z,98366.75
2024-01-19T16:10:44.900Z,98375.56
2024-01-19T16:14:47.852Z,98379.97
2024-01-19T16:18:52.722Z,98390.44
2024-01-19T16:22:55.679Z,98404.47
2024-01-19T16:26:59.415Z,98408.03
2024-01-19T16:31:02.331Z,98418.53
2024-01-19T16:35:07.506Z,98421.19
2024-01-19T16:39:11.213Z,98419.56
2024-01-19T16:43:14.221Z,98436.09
2024-01-19T16:47:21.931Z,98431.91
2024-01-19T16:51:27.409Z,98441.44
2024-01-19T16:55:30.530Z,98453.50
2024-01-19T16:59:35.334Z,98453.50
2024-01-19T17:03:38.377Z,98458.69
2024-01-19T17:07:42.674Z,98465.63
2024-01-19T17:11:45.676Z,98468.25
2024-01-19T17:15:48.572Z,98471.81
2024-01-19T17:19:51.574Z,98470.22
2024-01-19T17:23:57.904Z,98478.03
2024-01-19T17:28:05.394Z,98475.53
2024-01-19T17:32:08.825Z,98475.56
2024-01-19T17:36:14.669Z,98483.34
2024-01-19T17:40:20.162Z,98484.28
2024-01-19T17:44:23.310Z,98499.03
2024-01-19T17:48:26.544Z,98505.16
2024-01-19T17:52:38.485Z,98513.88
2024-01-19T17:56:42.856Z,98516.56
2024-01-19T18:00:46.345Z,98529.47
2024-01-19T18:04:49.765Z,98531.28
2024-01-19T18:08:54.275Z,98532.19
2024-01-19T18:12:59.152Z,98533.09
2024-01-19T18:17:02.367Z,98542.53
2024-01-19T18:21:06.298Z,98547.75
2024-01-19T18:25:10.398Z,98549.53
2024-01-19T18:29:16.600Z,98553.91
2024-01-19T18:33:19.799Z,98554.88
2024-01-19T18:37:22.775Z,98566.06
2024-01-19T18:41:25.807Z,98571.25
2024-01-19T18:45:30.178Z,98573.03
2024-01-19T18:49:33.645Z,98573.94
2024-01-19T18:53:36.829Z,98574.78
2024-01-19T18:57:39.998Z,98578.19
2024-01-19T19:01:44.987Z,98582.44
2024-01-19T19:05:50.002Z,98580.72
2024-01-19T19:09:54.675Z,98585.09
2024-01-19T19:13:58.951Z,98598.03
2024-01-19T19:18:08.316Z,98608.34
2024-01-19T19:22:11.306Z,98608.44
2024-01-19T19:26:14.815Z,98623.03
2024-01-19T19:30:18.140Z,98625.66
2024-01-19T19:34:23.422Z,98621.41
2024-01-19T19:38:26.479Z,98621.41
2024-01-19T19:42:29.557Z,98629.13
2024-01-19T19:46:33.373Z,98621.44
2024-01-19T19:50:38.080Z,98623.25
2024-01-19T19:54:41.920Z,98628.44
2024-01-19T19:58:45.192Z,98623.31
2024-01-19T20:02:48.523Z,98625.06
2024-01-19T20:06:52.980Z,98618.22
2024-01-19T20:10:55.996Z,98631.91
2024-01-19T20:14:58.922Z,98635.34
2024-01-19T20:19:02.406Z,98632.78
2024-01-19T20:23:07.297Z,98645.66
2024-01-19T20:27:10.439Z,98640.59
2024-01-19T20:31:13.991Z,98632.91
2024-01-19T20:35:17.574Z,98645.78
2024-01-19T20:39:22.544Z,98645.75
2024-01-19T20:43:25.898Z,98650.88
2024-01-19T20:47:28.905Z,98649.19
2024-01-19T20:51:33.865Z,98659.47
2024-01-19T20:55:39.887Z,98668.91
2024-01-19T20:59:42.966Z,98670.69
2024-01-19T21:03:47.033Z,98674.97
2024-01-19T21:07:54.432Z,98674.97
2024-01-19T21:12:03.791Z,98677.53
2024-01-19T21:16:07.177Z,98688.75
2024-01-19T21:20:11.618Z,98685.38
2024-01-19T21:24:14.743Z,98691.41
2024-01-19T21:28:19.165Z,98703.44
2024-01-19T21:32:22.130Z,98707.72
2024-01-19T21:36:25.136Z,98706.03
2024-01-19T21:40:28.569Z,98721.41
2024-01-19T21:44:33.089Z,98731.72
2024-01-19T21:48:37.494Z,98728.31
2024-01-19T21:52:40.962Z,98734.31
2024-01-19T21:56:45.914Z,98738.56
2024-01-19T22:00:50.983Z,98736.88
2024-01-19T22:04:54.341Z,98740.31
2024-01-19T22:08:57.522Z,98740.31
2024-01-19T22:13:00.495Z,98733.47
2024-01-19T22:17:06.124Z,98727.47
2024-01-19T22:21:09.080Z,98733.47
2024-01-19T22:25:12.569Z,98738.59
2024-01-19T22:29:15.984Z,98736.91
2024-01-19T22:33:21.799Z,98746.28
2024-01-19T22:37:25.086Z,98742.03
2024-01-19T22:41:28.251Z,98754.03
2024-01-19T22:45:31.422Z,98762.53
2024-01-19T22:49:35.833Z,98763.41
2024-01-19T22:53:38.950Z,98770.25
2024-01-19T22:57:41.923Z,98782.22
2024-01-19T23:01:48.249Z,98785.63
2024-01-19T23:05:52.794Z,98789.06
2024-01-19T23:09:55.826Z,98787.34
2024-01-19T23:13:58.797Z,98789.91
2024-01-19T23:18:02.581Z,98789.91
2024-01-19T23:22:07.032Z,98802.72
2024-01-19T23:26:10.339Z,98806.16
2024-01-19T23:30:13.653Z,98797.59
2024-01-19T23:34:16.762Z,98801.03
2024-01-19T23:38:21.534Z,98799.31
2024-01-19T23:42:26.521Z,98801.03
2024-01-19T23:46:30.036Z,98801.88
2024-01-19T23:50:33.034Z,98813.84
2024-01-19T23:54:37.638Z,98807.00
2024-01-19T23:58:40.635Z,98806.97
